createdAt,value
2023-03-16T00:02:03.541Z,3.22
2023-03-16T00:04:30.689Z,2.95
2023-03-16T00:06:58.189Z,3.22
2023-03-16T00:09:30.893Z,3.13
2023-03-16T00:12:04.847Z,3.40
2023-03-16T00:14:32.422Z,3.30
2023-03-16T00:16:58.858Z,2.83
2023-03-16T00:19:25.252Z,2.78
2023-03-16T00:21:52.060Z,3.28
2023-03-16T00:24:19.570Z,3.10
2023-03-16T00:26:47.292Z,3.28
2023-03-16T00:29:14.311Z,3.78
2023-03-16T00:31:43.973Z,4.10
2023-03-16T00:34:12.118Z,3.15
2023-03-16T00:36:38.987Z,3.40
2023-03-16T00:39:06.861Z,3.30
2023-03-16T00:41:37.872Z,3.45
2023-03-16T00:44:09.730Z,3.78
2023-03-16T00:46:36.200Z,3.72
2023-03-16T00:49:02.740Z,3.95
2023-03-16T00:51:30.470Z,3.80
2023-03-16T00:53:56.913Z,4.10
2023-03-16T00:56:23.279Z,3.40
2023-03-16T00:58:49.605Z,3.50
2023-03-16T01:01:19.377Z,3.72
2023-03-16T01:03:47.317Z,2.95
2023-03-16T01:06:17.059Z,3.70
2023-03-16T01:08:44.449Z,3.88
2023-03-16T01:11:16.764Z,3.50
2023-03-16T01:13:43.489Z,4.03
2023-03-16T01:16:11.009Z,3.17
2023-03-16T01:18:38.034Z,4.25
2023-03-16T01:21:07.810Z,4.00
2023-03-16T01:23:35.483Z,3.65
2023-03-16T01:26:02.237Z,3.97
2023-03-16T01:28:30.559Z,3.75
2023-03-16T01:31:01.934Z,3.97
2023-03-16T01:33:28.759Z,4.20
2023-03-16T01:36:01.072Z,4.13
2023-03-16T01:38:27.745Z,4.20
2023-03-16T01:40:55.821Z,3.88
2023-03-16T01:46:05.882Z,3.88
2023-03-16T01:48:37.784Z,4.13
2023-03-16T01:51:09.863Z,4.22
2023-03-16T01:53:41.763Z,4.20
2023-03-16T01:56:11.321Z,3.70
2023-03-16T01:58:39.076Z,4.30
2023-03-16T02:01:05.817Z,4.07
2023-03-16T02:03:35.826Z,4.10
2023-03-16T02:06:11.387Z,4.32
2023-03-16T02:08:39.648Z,4.05
2023-03-16T02:11:08.625Z,3.63
2023-03-16T02:13:36.821Z,4.72
2023-03-16T02:16:08.411Z,4.15
2023-03-16T02:18:36.277Z,3.58
2023-03-16T02:21:16.226Z,4.38
2023-03-16T02:23:44.317Z,4.15
2023-03-16T02:26:22.910Z,4.15
2023-03-16T02:29:19.154Z,4.20
2023-03-16T02:31:46.730Z,4.20
2023-03-16T02:34:16.793Z,3.38
2023-03-16T02:36:47.127Z,4.38
2023-03-16T02:39:13.546Z,4.55
2023-03-16T02:41:43.253Z,4.15
2023-03-16T02:44:15.327Z,3.85
2023-03-16T02:46:43.638Z,3.88
2023-03-16T02:49:39.810Z,3.40
2023-03-16T02:52:07.896Z,2.97
2023-03-16T02:54:34.484Z,3.90
2023-03-16T02:57:00.844Z,4.68
2023-03-16T02:59:27.316Z,3.15
2023-03-16T03:01:53.715Z,4.35
2023-03-16T03:04:23.462Z,4.25
2023-03-16T03:06:51.460Z,4.03
2023-03-16T03:11:46.907Z,3.92
2023-03-16T03:14:16.763Z,3.83
2023-03-16T03:16:46.583Z,3.55
2023-03-16T03:19:13.634Z,4.70
2023-03-16T03:21:41.011Z,3.88
2023-03-16T03:24:08.339Z,4.20
2023-03-16T03:26:34.829Z,4.47
2023-03-16T03:29:01.275Z,3.85
2023-03-16T03:31:27.797Z,4.22
2023-03-16T03:33:54.198Z,3.72
2023-03-16T03:36:22.142Z,3.78
2023-03-16T03:38:54.709Z,4.13
2023-03-16T03:41:22.324Z,4.30
2023-03-16T03:43:48.662Z,4.40
2023-03-16T03:46:15.242Z,3.92
2023-03-16T03:48:41.746Z,3.30
2023-03-16T03:51:08.123Z,4.32
2023-03-16T03:53:34.715Z,3.97
2023-03-16T03:56:01.091Z,3.78
2023-03-16T03:58:27.418Z,3.83
2023-03-16T04:00:53.811Z,3.72
2023-03-16T04:03:20.353Z,3.85
2023-03-16T04:05:47.098Z,4.78
2023-03-16T04:08:13.595Z,3.17
2023-03-16T04:10:41.024Z,3.88
2023-03-16T04:13:07.469Z,3.67
2023-03-16T04:15:35.103Z,4.40
2023-03-16T04:18:01.914Z,4.68
2023-03-16T04:20:29.714Z,3.95
2023-03-16T04:25:27.205Z,3.67
2023-03-16T04:27:54.045Z,3.75
2023-03-16T04:30:20.676Z,3.75
2023-03-16T04:32:47.190Z,3.67
2023-03-16T04:35:15.457Z,3.90
2023-03-16T04:37:41.787Z,4.30
2023-03-16T04:40:15.500Z,4.43
2023-03-16T04:42:42.721Z,4.20
2023-03-16T04:45:09.776Z,3.90
2023-03-16T04:47:37.699Z,3.70
2023-03-16T04:50:05.804Z,4.20
2023-03-16T04:54:58.740Z,3.65
2023-03-16T04:57:25.339Z,3.45
2023-03-16T04:59:51.844Z,3.17
2023-03-16T05:02:19.972Z,3.33
2023-03-16T05:04:46.714Z,3.90
2023-03-16T05:07:13.196Z,3.63
2023-03-16T05:09:39.690Z,3.72
2023-03-16T05:12:06.317Z,4.30
2023-03-16T05:14:32.717Z,4.00
2023-03-16T05:16:59.045Z,3.35
2023-03-16T05:19:25.462Z,3.13
2023-03-16T05:21:51.875Z,3.53
2023-03-16T05:24:18.291Z,2.90
2023-03-16T05:26:44.751Z,4.00
2023-03-16T05:29:11.568Z,3.67
2023-03-16T05:31:38.388Z,3.60
2023-03-16T05:34:04.832Z,2.55
2023-03-16T05:36:31.246Z,3.50
2023-03-16T05:38:59.287Z,3.15
2023-03-16T05:41:25.764Z,3.22
2023-03-16T05:43:52.223Z,3.53
2023-03-16T05:46:20.857Z,3.80
2023-03-16T05:48:47.728Z,3.05
2023-03-16T05:51:14.200Z,3.70
2023-03-16T05:53:41.914Z,3.47
2023-03-16T05:56:08.599Z,3.33
2023-03-16T05:58:35.007Z,3.60
2023-03-16T06:01:01.876Z,3.22
2023-03-16T06:03:28.357Z,3.60
2023-03-16T06:05:54.697Z,3.70
2023-03-16T06:08:21.074Z,3.72
2023-03-16T06:10:50.865Z,3.65
2023-03-16T06:13:17.293Z,3.10
2023-03-16T06:15:44.341Z,3.33
2023-03-16T06:18:10.948Z,2.97
2023-03-16T06:20:37.446Z,3.63
2023-03-16T06:23:04.612Z,3.50
2023-03-16T06:25:31.220Z,3.13
2023-03-16T06:27:57.607Z,3.60
2023-03-16T06:30:24.721Z,3.83
2023-03-16T06:32:52.094Z,3.05
2023-03-16T06:35:18.625Z,3.47
2023-03-16T06:37:45.101Z,3.10
2023-03-16T06:40:12.327Z,3.78
2023-03-16T06:42:38.718Z,3.60
2023-03-16T06:45:05.763Z,3.05
2023-03-16T06:47:32.544Z,3.50
2023-03-16T06:49:59.206Z,2.78
2023-03-16T06:52:25.678Z,2.90
2023-03-16T06:54:52.005Z,3.00
2023-03-16T06:57:18.427Z,3.13
2023-03-16T06:59:44.798Z,2.83
2023-03-16T07:02:14.905Z,3.70
2023-03-16T07:04:42.309Z,2.72
2023-03-16T07:07:09.494Z,3.55
2023-03-16T07:09:38.679Z,3.33
2023-03-16T07:12:06.271Z,3.10
2023-03-16T07:14:32.681Z,2.58
2023-03-16T07:16:59.355Z,2.67
2023-03-16T07:19:25.734Z,2.88
2023-03-16T07:21:52.223Z,2.95
2023-03-16T07:24:18.656Z,2.72
2023-03-16T07:26:46.269Z,3.22
2023-03-16T07:29:14.297Z,2.85
2023-03-16T07:34:07.256Z,3.55
2023-03-16T07:36:33.885Z,2.58
2023-03-16T07:39:01.302Z,2.83
2023-03-16T07:41:27.830Z,3.45
2023-03-16T07:43:54.451Z,2.45
2023-03-16T07:46:20.975Z,2.60
2023-03-16T07:48:47.508Z,3.08
2023-03-16T07:51:14.416Z,3.13
2023-03-16T07:53:41.498Z,3.00
2023-03-16T07:56:08.200Z,3.28
2023-03-16T07:58:34.723Z,3.03
2023-03-16T08:01:01.657Z,2.63
2023-03-16T08:03:29.671Z,3.10
2023-03-16T08:08:22.865Z,2.88
2023-03-16T08:10:52.197Z,2.83
2023-03-16T08:13:19.776Z,3.00
2023-03-16T08:15:48.287Z,2.90
2023-03-16T08:18:14.918Z,3.22
2023-03-16T08:20:41.947Z,2.15
2023-03-16T08:23:08.449Z,3.35
2023-03-16T08:25:34.818Z,2.97
2023-03-16T08:28:02.180Z,2.63
2023-03-16T08:30:30.924Z,2.75
2023-03-16T08:32:57.702Z,3.75
2023-03-16T08:35:24.500Z,3.05
2023-03-16T08:37:50.975Z,2.75
2023-03-16T08:40:18.217Z,2.75
2023-03-16T08:42:45.285Z,3.42
2023-03-16T08:45:14.194Z,3.40
2023-03-16T08:47:41.160Z,2.88
2023-03-16T08:50:09.044Z,2.85
2023-03-16T08:55:07.258Z,3.03
2023-03-16T08:57:34.228Z,3.30
2023-03-16T09:00:01.585Z,3.10
2023-03-16T09:02:28.048Z,2.95
2023-03-16T09:04:54.690Z,3.20
2023-03-16T09:07:22.007Z,2.35
2023-03-16T09:09:48.716Z,3.10
2023-03-16T09:12:15.189Z,2.90
2023-03-16T09:14:41.683Z,2.78
2023-03-16T09:17:08.141Z,2.70
2023-03-16T09:19:50.089Z,2.90
2023-03-16T09:22:18.482Z,3.05
2023-03-16T09:24:45.017Z,2.70
2023-03-16T09:27:12.021Z,3.35
2023-03-16T09:29:38.440Z,2.78
2023-03-16T09:32:05.314Z,3.20
2023-03-16T09:34:33.257Z,2.63
2023-03-16T09:37:00.626Z,3.25
2023-03-16T09:39:30.177Z,2.42
2023-03-16T09:42:10.138Z,3.22
2023-03-16T09:44:46.482Z,2.95
2023-03-16T09:47:16.511Z,3.13
2023-03-16T09:49:47.566Z,3.00
2023-03-16T09:52:27.201Z,3.38
2023-03-16T09:55:02.660Z,3.22
2023-03-16T09:57:32.248Z,2.95
2023-03-16T10:00:13.578Z,3.45
2023-03-16T10:05:10.708Z,2.95
2023-03-16T10:08:12.801Z,3.03
2023-03-16T10:11:16.728Z,2.90
2023-03-16T10:13:48.906Z,3.15
2023-03-16T10:16:38.478Z,2.85
2023-03-16T10:19:19.908Z,2.80
2023-03-16T10:24:25.345Z,2.90
2023-03-16T10:27:00.577Z,2.80
2023-03-16T10:29:35.259Z,2.97
2023-03-16T10:32:12.227Z,2.20
2023-03-16T10:34:38.729Z,2.60
2023-03-16T10:37:05.888Z,2.65
2023-03-16T10:39:36.753Z,2.78
2023-03-16T10:42:03.233Z,2.72
2023-03-16T10:44:33.374Z,2.42
2023-03-16T10:47:05.500Z,2.40
2023-03-16T10:49:44.287Z,3.03
2023-03-16T10:52:19.742Z,2.63
2023-03-16T10:55:01.718Z,2.67
2023-03-16T10:57:41.865Z,2.97
2023-03-16T11:00:15.138Z,2.67
2023-03-16T11:02:42.594Z,3.00
2023-03-16T11:05:28.287Z,2.53
2023-03-16T11:08:09.921Z,2.20
2023-03-16T11:10:55.160Z,2.72
2023-03-16T11:13:22.660Z,2.90
2023-03-16T11:15:57.951Z,2.60
2023-03-16T11:18:43.656Z,2.80
2023-03-16T11:21:21.461Z,2.35
2023-03-16T11:23:51.290Z,2.60
2023-03-16T11:26:40.641Z,2.75
2023-03-16T11:29:18.704Z,3.05
2023-03-16T11:31:55.199Z,2.22
2023-03-16T11:34:32.313Z,2.60
2023-03-16T11:37:29.274Z,2.55
2023-03-16T11:40:00.569Z,2.22
2023-03-16T11:42:46.597Z,2.92
2023-03-16T11:45:30.883Z,2.17
2023-03-16T11:48:18.072Z,2.28
2023-03-16T11:50:56.529Z,2.90
2023-03-16T11:53:46.623Z,2.70
2023-03-16T11:56:27.805Z,2.42
2023-03-16T12:01:33.854Z,2.58
2023-03-16T12:04:10.186Z,2.60
2023-03-16T12:07:02.146Z,2.30
2023-03-16T12:09:38.186Z,2.85
2023-03-16T12:12:34.320Z,2.85
2023-03-16T12:15:16.519Z,2.58
2023-03-16T12:17:44.032Z,2.67
2023-03-16T12:20:18.650Z,2.45
2023-03-16T12:23:10.617Z,2.40
2023-03-16T12:25:40.887Z,2.20
2023-03-16T12:28:33.309Z,2.28
2023-03-16T12:31:12.213Z,2.38
2023-03-16T12:34:16.398Z,2.50
2023-03-16T12:37:10.286Z,2.45
2023-03-16T12:40:16.801Z,2.42
2023-03-16T12:42:55.542Z,2.53
2023-03-16T12:45:51.801Z,2.35
2023-03-16T12:48:31.468Z,2.10
2023-03-16T12:51:01.402Z,2.33
2023-03-16T12:53:54.626Z,2.30
2023-03-16T12:56:30.122Z,2.15
2023-03-16T12:59:00.953Z,2.20
2023-03-16T13:01:43.788Z,2.08
2023-03-16T13:04:35.390Z,1.90
2023-03-16T13:07:06.045Z,2.45
2023-03-16T13:09:36.863Z,2.00
2023-03-16T13:12:06.779Z,2.15
2023-03-16T13:14:40.867Z,2.25
2023-03-16T13:17:16.992Z,2.30
2023-03-16T13:19:46.733Z,1.90
2023-03-16T13:22:29.533Z,1.60
2023-03-16T13:25:12.176Z,1.90
2023-03-16T13:27:40.804Z,1.70
2023-03-16T13:30:26.514Z,1.70
2023-03-16T13:32:55.013Z,1.50
2023-03-16T13:35:27.148Z,2.10
2023-03-16T13:37:54.289Z,1.92
2023-03-16T13:40:27.620Z,1.80
2023-03-16T13:42:57.221Z,1.75
2023-03-16T13:45:37.931Z,1.67
2023-03-16T13:48:05.469Z,1.75
2023-03-16T13:50:36.151Z,1.67
2023-03-16T13:53:10.673Z,1.77
2023-03-16T13:55:38.546Z,1.70
2023-03-16T13:58:05.392Z,1.73
2023-03-16T14:00:35.270Z,1.73
2023-03-16T14:03:18.991Z,1.80
2023-03-16T14:05:46.003Z,2.38
2023-03-16T14:08:19.855Z,1.77
2023-03-16T14:10:48.471Z,1.65
2023-03-16T14:13:32.537Z,2.00
2023-03-16T14:16:01.094Z,1.85
2023-03-16T14:18:34.362Z,1.88
2023-03-16T14:21:06.789Z,1.92
2023-03-16T14:23:38.162Z,1.40
2023-03-16T14:26:13.780Z,1.70
2023-03-16T14:28:57.275Z,2.10
2023-03-16T14:31:33.435Z,1.50
2023-03-16T14:34:05.141Z,1.60
2023-03-16T14:36:37.386Z,1.67
2023-03-16T14:39:16.769Z,1.85
2023-03-16T14:41:43.781Z,1.73
2023-03-16T14:44:21.353Z,1.73
2023-03-16T14:46:48.821Z,1.92
2023-03-16T14:49:29.131Z,1.75
2023-03-16T14:52:00.398Z,1.77
2023-03-16T14:54:27.801Z,1.63
2023-03-16T14:59:22.009Z,1.65
2023-03-16T15:01:50.358Z,1.45
2023-03-16T15:04:22.517Z,1.60
2023-03-16T15:06:49.189Z,1.75
2023-03-16T15:09:37.992Z,2.30
2023-03-16T15:12:12.978Z,1.63
2023-03-16T15:14:57.786Z,1.55
2023-03-16T15:17:24.179Z,2.13
2023-03-16T15:19:50.541Z,1.52
2023-03-16T15:22:23.605Z,1.70
2023-03-16T15:24:50.023Z,1.42
2023-03-16T15:27:34.353Z,1.60
2023-03-16T15:30:01.777Z,1.67
2023-03-16T15:34:54.548Z,1.52
2023-03-16T15:37:23.196Z,1.77
2023-03-16T15:39:49.675Z,1.50
2023-03-16T15:42:18.423Z,1.60
2023-03-16T15:44:46.040Z,1.50
2023-03-16T15:47:13.248Z,1.58
2023-03-16T15:49:47.169Z,1.42
2023-03-16T15:52:31.881Z,1.48
2023-03-16T15:55:02.999Z,1.60
2023-03-16T15:57:29.443Z,1.50
2023-03-16T15:59:55.794Z,1.75
2023-03-16T16:02:31.166Z,1.40
2023-03-16T16:04:58.663Z,1.40
2023-03-16T16:09:51.899Z,1.30
2023-03-16T16:12:21.174Z,1.67
2023-03-16T16:14:47.627Z,1.50
2023-03-16T16:17:36.509Z,1.50
2023-03-16T16:20:21.375Z,1.60
2023-03-16T16:22:47.809Z,1.70
2023-03-16T16:25:14.589Z,2.13
2023-03-16T16:27:41.345Z,1.80
2023-03-16T16:30:22.986Z,1.75
2023-03-16T16:32:51.270Z,1.75
2023-03-16T16:35:21.604Z,1.95
2023-03-16T16:37:48.777Z,1.60
2023-03-16T16:40:18.872Z,1.67
2023-03-16T16:42:50.086Z,1.40
2023-03-16T16:45:22.135Z,1.60
2023-03-16T16:47:52.264Z,1.70
2023-03-16T16:50:19.284Z,2.30
2023-03-16T16:52:46.075Z,2.00
2023-03-16T16:55:12.590Z,1.63
2023-03-16T16:57:39.582Z,1.95
2023-03-16T17:00:17.422Z,2.13
2023-03-16T17:02:46.408Z,2.15
2023-03-16T17:05:20.671Z,1.80
2023-03-16T17:07:47.887Z,2.80
2023-03-16T17:10:17.771Z,1.88
2023-03-16T17:12:45.151Z,2.10
2023-03-16T17:15:19.094Z,2.10
2023-03-16T17:17:46.010Z,2.30
2023-03-16T17:20:19.380Z,2.50
2023-03-16T17:22:50.006Z,2.28
2023-03-16T17:25:17.993Z,1.95
2023-03-16T17:27:49.386Z,1.98
2023-03-16T17:30:23.305Z,2.15
2023-03-16T17:32:51.898Z,2.13
2023-03-16T17:35:18.961Z,2.20
2023-03-16T17:37:47.794Z,1.67
2023-03-16T17:40:27.385Z,1.70
2023-03-16T17:42:55.956Z,2.53
2023-03-16T17:45:28.499Z,2.13
2023-03-16T17:47:56.052Z,1.80
2023-03-16T17:50:33.868Z,1.95
2023-03-16T17:53:00.756Z,1.92
2023-03-16T17:55:27.162Z,2.20
2023-03-16T17:57:55.297Z,1.63
2023-03-16T18:00:31.736Z,1.95
2023-03-16T18:03:14.011Z,2.03
2023-03-16T18:05:44.010Z,1.95
2023-03-16T18:08:27.685Z,2.10
2023-03-16T18:10:57.749Z,2.30
2023-03-16T18:13:27.978Z,2.00
2023-03-16T18:15:55.869Z,2.13
2023-03-16T18:18:25.042Z,2.03
2023-03-16T18:20:54.755Z,1.92
2023-03-16T18:23:23.884Z,2.40
2023-03-16T18:25:52.549Z,2.42
2023-03-16T18:28:19.651Z,2.22
2023-03-16T18:30:48.938Z,2.28
2023-03-16T18:33:30.906Z,2.40
2023-03-16T18:36:01.251Z,2.58
2023-03-16T18:38:43.469Z,2.53
2023-03-16T18:41:23.662Z,2.50
2023-03-16T18:43:53.022Z,2.95
2023-03-16T18:46:27.333Z,2.53
2023-03-16T18:48:57.078Z,2.65
2023-03-16T18:51:23.815Z,2.40
2023-03-16T18:53:50.602Z,2.28
2023-03-16T18:56:27.152Z,2.40
2023-03-16T18:58:58.372Z,2.47
2023-03-16T19:01:30.814Z,2.70
2023-03-16T19:03:59.347Z,2.80
2023-03-16T19:06:34.785Z,2.75
2023-03-16T19:09:06.219Z,2.42
2023-03-16T19:11:34.533Z,2.28
2023-03-16T19:14:01.259Z,2.58
2023-03-16T19:16:27.705Z,2.35
2023-03-16T19:18:54.260Z,2.33
2023-03-16T19:21:22.873Z,2.40
2023-03-16T19:23:57.414Z,2.20
2023-03-16T19:28:51.019Z,2.38
2023-03-16T19:31:24.883Z,2.40
2023-03-16T19:33:53.039Z,2.38
2023-03-16T19:36:22.090Z,2.08
2023-03-16T19:38:50.413Z,2.50
2023-03-16T19:41:28.829Z,2.17
2023-03-16T19:44:03.119Z,2.65
2023-03-16T19:46:30.249Z,2.58
2023-03-16T19:48:57.136Z,2.22
2023-03-16T19:51:25.345Z,2.00
2023-03-16T19:53:51.935Z,2.40
2023-03-16T19:56:20.602Z,2.45
2023-03-16T19:58:50.745Z,2.00
2023-03-16T20:01:21.995Z,2.60
2023-03-16T20:03:49.589Z,2.40
2023-03-16T20:06:18.823Z,2.13
2023-03-16T20:08:47.022Z,2.47
2023-03-16T20:11:31.564Z,2.30
2023-03-16T20:13:59.534Z,2.35
2023-03-16T20:16:29.897Z,2.30
2023-03-16T20:19:02.842Z,2.42
2023-03-16T20:21:29.754Z,2.20
2023-03-16T20:23:56.531Z,2.28
2023-03-16T20:26:31.671Z,2.55
2023-03-16T20:28:59.742Z,2.25
2023-03-16T20:31:30.985Z,2.47
2023-03-16T20:33:58.149Z,2.42
2023-03-16T20:36:26.007Z,2.50
2023-03-16T20:38:52.594Z,2.55
2023-03-16T20:41:26.645Z,2.30
2023-03-16T20:43:54.516Z,3.00
2023-03-16T20:48:50.611Z,2.40
2023-03-16T20:51:17.102Z,2.50
2023-03-16T20:53:44.902Z,2.50
2023-03-16T20:56:20.107Z,2.53
2023-03-16T20:58:49.696Z,2.35
2023-03-16T21:01:21.307Z,2.08
2023-03-16T21:03:55.048Z,2.10
2023-03-16T21:06:28.375Z,2.60
2023-03-16T21:08:56.593Z,2.05
2023-03-16T21:11:32.008Z,2.20
2023-03-16T21:13:58.364Z,2.42
2023-03-16T21:16:25.304Z,2.20
2023-03-16T21:18:51.871Z,1.98
2023-03-16T21:21:20.390Z,2.38
2023-03-16T21:23:46.988Z,2.10
2023-03-16T21:26:20.187Z,2.08
2023-03-16T21:28:52.944Z,2.55
2023-03-16T21:31:19.897Z,2.50
2023-03-16T21:33:46.532Z,2.20
2023-03-16T21:36:18.699Z,2.55
2023-03-16T21:38:46.685Z,2.30
2023-03-16T21:41:13.945Z,2.40
2023-03-16T21:43:41.746Z,2.70
2023-03-16T21:46:34.481Z,2.67
2023-03-16T21:49:01.655Z,2.20
2023-03-16T21:51:31.363Z,2.22
2023-03-16T21:53:58.154Z,2.50
2023-03-16T21:56:26.124Z,2.35
2023-03-16T21:58:53.743Z,2.40
2023-03-16T22:01:29.564Z,2.30
2023-03-16T22:03:58.299Z,2.17
2023-03-16T22:06:28.006Z,2.95
2023-03-16T22:08:54.960Z,2.45
2023-03-16T22:11:24.207Z,2.38
2023-03-16T22:13:51.805Z,2.55
2023-03-16T22:16:21.665Z,2.30
2023-03-16T22:18:50.115Z,2.28
2023-03-16T22:21:39.098Z,2.88
2023-03-16T22:24:13.633Z,2.70
2023-03-16T22:26:40.296Z,2.65
2023-03-16T22:29:25.352Z,2.67
2023-03-16T22:31:55.912Z,2.65
2023-03-16T22:34:29.450Z,2.47
2023-03-16T22:36:56.892Z,2.40
2023-03-16T22:39:24.077Z,2.92
2023-03-16T22:41:51.922Z,2.55
2023-03-16T22:44:22.832Z,2.70
2023-03-16T22:46:50.279Z,2.53
2023-03-16T22:49:26.279Z,2.75
2023-03-16T22:51:56.575Z,2.83
2023-03-16T22:54:28.352Z,2.83
2023-03-16T22:56:55.079Z,3.03
2023-03-16T22:59:25.193Z,2.65
2023-03-16T23:01:51.764Z,2.90
2023-03-16T23:04:21.684Z,3.13
2023-03-16T23:06:49.793Z,2.92
2023-03-16T23:09:18.350Z,3.00
2023-03-16T23:11:47.414Z,2.60
2023-03-16T23:14:19.397Z,2.80
2023-03-16T23:16:47.751Z,2.92
2023-03-16T23:19:32.804Z,2.63
2023-03-16T23:22:04.982Z,2.70
2023-03-16T23:24:33.125Z,2.65
2023-03-16T23:27:00.248Z,2.90
2023-03-16T23:29:27.750Z,2.63
2023-03-16T23:31:54.653Z,3.10
2023-03-16T23:34:23.485Z,3.08
2023-03-16T23:36:51.420Z,2.67
2023-03-16T23:41:47.802Z,2.35
2023-03-16T23:44:21.310Z,2.47
2023-03-16T23:46:47.727Z,2.70
2023-03-16T23:49:36.728Z,2.70
2023-03-16T23:52:04.465Z,2.60
2023-03-16T23:54:31.809Z,2.90
2023-03-16T23:56:58.723Z,2.75
2023-03-16T23:59:27.246Z,3.05
